Logan - 24 Hour Table
Date & TimeSolar
Radiation
(W/m²)
Wind
Speed
(mph)
Wind
Direction
(degrees)
Air
Temperature
(°F)
Relative
Humidity
(%)
Precipitation
(inches)
Barometric
Pressure
(inHg)
2019/10/19 13:00 68 14.3 215 49.3 54 0.00 29.85
2019/10/19 12:00 192 1.8 164 47.1 49 0.00 29.85
2019/10/19 11:00 146 2.5 22 42.7 69 0.00 29.88
2019/10/19 10:00 212 2.2 343 40.4 76 0.00 29.90
2019/10/19 09:00 118 1.5 226 37.7 84 0.00 29.91
2019/10/19 08:00 100 0.5 171 34.9 80 0.00 29.93
2019/10/19 07:00 3 0.6 48 34.5 91 0.00 29.94
2019/10/19 06:00 0 1.1 156 36.6 82 0.00 29.97
2019/10/19 05:00 0 2.6 171 37.0 82 0.00 29.98
2019/10/19 04:00 0 1.6 210 37.7 90 0.00 29.98
2019/10/19 03:00 0 2.8 304 38.0 89 0.00 29.99
2019/10/19 02:00 0 1.0 331 36.4 89 0.00 29.99
2019/10/19 01:00 0 0.3 286 36.4 87 0.00 29.98
2019/10/19 00:00 0 0.3 94 37.3 83 0.00 29.98
2019/10/18 23:00 0 0.7 152 36.6 78 0.00 29.98
2019/10/18 22:00 0 1.1 190 39.3 83 0.00 29.99
2019/10/18 21:00 0 0.8 226 39.7 71 0.00 29.99
2019/10/18 20:00 0 0.9 104 43.7 66 0.00 29.99
2019/10/18 19:00 0 1.0 82 46.7 60 0.00 29.99
2019/10/18 18:00 10 0.7 148 48.5 48 0.00 29.98
2019/10/18 17:00 65 4.6 194 48.8 51 0.00 29.98
2019/10/18 16:00 145 4.7 205 49.7 49 0.00 29.98
2019/10/18 15:00 176 3.7 274 50.2 46 0.00 29.97
2019/10/18 14:00 256 3.5 270 50.8 43 0.00 29.98